Time;durP1;ratioP1;P1;durP2;ratioP2;P2;SDS_P1;SDS_P2;PMS_P1;PMS_P2;Temp;Humidity;BMP_temperature;BMP_pressure;BME280_temperature;BME280_humidity;BME280_pressure;Samples;Min_cycle;Max_cycle;Signal;HPM_P1;HPM_P2
2023/05/01 00:01:45;;;;;;;1.33;1.00;;;;;;;17.47;55.08;96509.41;10349889;28;20068;-30
2023/05/01 00:06:46;;;;;;;2.23;1.87;;;;;;;17.65;62.28;96509.44;10344699;28;20501;-31
2023/05/01 00:11:46;;;;;;;1.73;1.63;;;;;;;17.71;63.75;96509.41;10311111;28;20038;-30
2023/05/01 00:16:47;;;;;;;2.40;1.57;;;;;;;17.68;59.74;96504.38;10342120;28;20049;-31
2023/05/01 00:21:47;;;;;;;1.10;1.00;;;;;;;17.62;55.58;96494.22;10327780;28;20651;-30
2023/05/01 00:26:48;;;;;;;1.25;1.10;;;;;;;17.57;55.49;96490.88;10319328;28;20493;-30
2023/05/01 00:31:48;;;;;;;1.00;0.90;;;;;;;17.55;55.21;96479.88;10326988;28;20073;-30
2023/05/01 00:36:49;;;;;;;1.03;0.93;;;;;;;17.55;54.97;96474.81;10348485;28;20515;-30
2023/05/01 00:41:49;;;;;;;1.65;0.85;;;;;;;17.53;55.11;96468.94;10339879;28;20379;-30
2023/05/01 00:46:50;;;;;;;1.23;1.00;;;;;;;17.52;54.75;96463.03;10317827;28;20408;-30
2023/05/01 00:51:52;;;;;;;1.20;1.10;;;;;;;17.52;54.93;96464.72;10330931;28;20401;-30
2023/05/01 00:56:53;;;;;;;0.85;0.85;;;;;;;17.50;54.89;96453.75;10322548;28;20042;-30
2023/05/01 01:01:54;;;;;;;0.98;0.88;;;;;;;17.50;54.82;96453.75;10339834;28;20042;-30
2023/05/01 01:07:08;;;;;;;2.03;1.63;;;;;;;17.64;62.50;96449.50;10340373;28;20153;-31
2023/05/01 01:12:26;;;;;;;2.67;1.75;;;;;;;17.71;64.25;96448.66;10353445;28;20044;-30
2023/05/01 01:17:33;;;;;;;1.52;1.33;;;;;;;17.70;60.34;96437.69;10336817;28;20533;-31
2023/05/01 01:22:38;;;;;;;0.98;0.98;;;;;;;17.61;56.51;96429.28;10340909;28;20073;-29
2023/05/01 01:28:09;;;;;;;1.67;1.05;;;;;;;17.57;55.82;96430.13;10348142;28;20038;-30
2023/05/01 01:33:27;;;;;;;0.95;0.82;;;;;;;17.55;55.57;96424.19;10338338;28;20507;-30
2023/05/01 01:38:39;;;;;;;0.88;0.73;;;;;;;17.51;55.33;96425.06;10348663;28;20049;-30
2023/05/01 01:43:45;;;;;;;1.30;1.00;;;;;;;17.51;55.66;96415.78;10354283;28;20128;-31
2023/05/01 01:48:48;;;;;;;1.10;0.90;;;;;;;17.51;55.47;96425.06;10347885;28;20034;-31
2023/05/01 01:53:52;;;;;;;0.80;0.80;;;;;;;17.50;55.04;96418.31;10346232;28;20376;-30
2023/05/01 01:58:54;;;;;;;1.02;0.90;;;;;;;17.51;55.34;96417.47;10321324;28;20039;-30
2023/05/01 02:03:56;;;;;;;0.50;0.50;;;;;;;17.47;55.03;96408.19;10329644;28;20104;-31
2023/05/01 02:08:59;;;;;;;1.73;1.58;;;;;;;17.62;62.56;96408.16;10337861;28;20030;-30
2023/05/01 02:14:02;;;;;;;3.30;2.70;;;;;;;17.69;63.97;96410.69;10343387;28;20425;-30
2023/05/01 02:19:04;;;;;;;1.33;1.08;;;;;;;17.69;60.64;96412.38;10323773;28;20042;-30
2023/05/01 02:24:06;;;;;;;1.38;1.20;;;;;;;17.60;57.72;96407.34;10338964;28;20085;-30
2023/05/01 02:29:06;;;;;;;1.05;0.85;;;;;;;17.56;56.29;96406.50;10343427;28;20101;-29
2023/05/01 02:34:11;;;;;;;0.88;0.82;;;;;;;17.54;55.71;96404.81;10336426;28;20122;-33
2023/05/01 02:39:11;;;;;;;1.35;0.90;;;;;;;17.49;55.57;96396.38;10344139;28;20042;-30
2023/05/01 02:44:14;;;;;;;1.88;0.75;;;;;;;17.48;55.21;96394.72;10359036;28;20405;-30
2023/05/01 02:49:17;;;;;;;1.35;0.90;;;;;;;17.52;55.54;96401.44;10353804;28;20026;-30
2023/05/01 02:54:18;;;;;;;0.90;0.80;;;;;;;17.52;55.24;96399.75;10335559;28;20034;-31
2023/05/01 02:59:19;;;;;;;1.23;0.98;;;;;;;17.51;55.21;96399.75;10351447;28;20129;-31
2023/05/01 03:04:19;;;;;;;0.90;0.73;;;;;;;17.51;54.92;96394.69;10333448;28;20049;-30
2023/05/01 03:09:20;;;;;;;1.30;1.20;;;;;;;17.55;58.96;96392.16;10343910;28;20095;-30
2023/05/01 03:14:21;;;;;;;1.83;1.50;;;;;;;17.64;62.64;96387.06;10350173;28;20040;-31
2023/05/01 03:19:21;;;;;;;2.80;2.15;;;;;;;17.71;63.62;96392.97;10339317;28;20037;-31
2023/05/01 03:24:23;;;;;;;1.30;1.20;;;;;;;17.64;59.35;96398.88;10342558;28;20046;-30
2023/05/01 03:29:24;;;;;;;0.73;0.73;;;;;;;17.56;55.82;96388.78;10330044;28;20392;-30
2023/05/01 03:34:25;;;;;;;0.80;0.80;;;;;;;17.53;55.61;96385.41;10330632;28;20041;-29
2023/05/01 03:39:27;;;;;;;1.55;0.80;;;;;;;17.53;55.61;96386.25;10333306;28;20406;-30
2023/05/01 03:44:48;;;;;;;0.93;0.90;;;;;;;17.54;55.17;96389.63;10331070;28;20042;-30
2023/05/01 03:49:49;;;;;;;1.27;0.93;;;;;;;17.55;55.31;96392.16;10341673;28;20446;-30
2023/05/01 03:54:50;;;;;;;1.08;0.98;;;;;;;17.54;54.79;96394.69;10317691;28;20034;-31
2023/05/01 04:00:04;;;;;;;1.80;0.63;;;;;;;17.55;54.99;96392.16;10324696;28;20104;-31
2023/05/01 04:05:14;;;;;;;0.68;0.60;;;;;;;17.56;54.76;96395.53;10335226;28;20042;-30
2023/05/01 04:10:19;;;;;;;0.90;0.60;;;;;;;17.55;54.90;96396.34;10332238;28;20549;-30
2023/05/01 04:15:33;;;;;;;1.83;1.35;;;;;;;17.66;62.75;96399.75;10331690;28;20117;-30
2023/05/01 04:20:34;;;;;;;1.93;1.20;;;;;;;17.70;63.01;96403.94;10338963;28;20107;-31
2023/05/01 04:25:35;;;;;;;2.22;1.58;;;;;;;17.70;61.24;96406.47;10345341;28;20848;-30
2023/05/01 04:30:41;;;;;;;1.10;0.90;;;;;;;17.59;56.02;96396.34;10355701;28;20040;-31
2023/05/01 04:35:42;;;;;;;1.15;0.75;;;;;;;17.60;55.34;96399.75;10341493;28;20048;-30
2023/05/01 04:40:43;;;;;;;0.95;0.82;;;;;;;17.60;55.48;96405.66;10340253;28;20109;-31
2023/05/01 04:45:43;;;;;;;0.70;0.55;;;;;;;17.58;55.05;96404.78;10352664;28;20117;-30
2023/05/01 04:50:44;;;;;;;0.90;0.80;;;;;;;17.57;54.76;96414.94;10349855;28;20041;-30
2023/05/01 04:55:45;;;;;;;0.80;0.60;;;;;;;17.55;55.08;96419.13;10340256;28;20038;-30
2023/05/01 05:00:48;;;;;;;1.00;0.80;;;;;;;17.54;54.81;96420.00;10353136;28;21298;-31
2023/05/01 05:05:54;;;;;;;0.80;0.73;;;;;;;17.53;54.84;96418.31;10332461;28;20038;-31
2023/05/01 05:11:01;;;;;;;0.55;0.55;;;;;;;17.53;54.93;96421.69;10344630;28;20496;-31
2023/05/01 05:16:31;;;;;;;1.85;0.90;;;;;;;17.60;58.99;96420.00;10324814;28;20516;-30
2023/05/01 05:21:31;;;;;;;2.85;1.50;;;;;;;17.66;63.20;96417.47;10342974;28;20030;-31
2023/05/01 05:26:35;;;;;;;2.65;1.30;;;;;;;17.74;63.26;96428.41;10338890;28;20034;-30
2023/05/01 05:31:37;;;;;;;1.08;0.98;;;;;;;17.72;56.49;96430.94;10345218;28;20063;-30
2023/05/01 05:36:37;;;;;;;0.60;0.60;;;;;;;17.72;55.97;96425.03;10331758;28;20045;-30
2023/05/01 05:41:37;;;;;;;2.72;0.90;;;;;;;17.75;55.62;96432.63;10332519;28;20460;-30
2023/05/01 05:46:38;;;;;;;0.80;0.80;;;;;;;17.77;55.76;96433.47;10335793;28;20045;-31
2023/05/01 05:51:41;;;;;;;1.52;0.93;;;;;;;17.80;56.74;96438.50;10359886;28;20109;-30
2023/05/01 05:56:42;;;;;;;0.85;0.85;;;;;;;17.80;57.55;96435.97;10335330;28;20663;-30
2023/05/01 06:01:43;;;;;;;1.77;1.08;;;;;;;17.81;57.74;96441.06;10328635;28;20046;-30
2023/05/01 06:06:43;;;;;;;2.03;1.23;;;;;;;17.82;59.76;96447.78;10329514;28;20053;-30
2023/05/01 06:11:44;;;;;;;4.27;1.40;;;;;;;17.81;57.71;96446.13;10320892;28;20687;-31
2023/05/01 06:16:45;;;;;;;2.33;0.98;;;;;;;17.85;58.55;96446.97;10334891;28;20351;-30
2023/05/01 06:21:48;;;;;;;2.50;1.92;;;;;;;17.89;58.46;96448.63;10338744;28;20116;-30
2023/05/01 06:26:48;;;;;;;4.72;1.85;;;;;;;17.90;60.96;96440.19;10351794;28;20535;-30
2023/05/01 06:31:48;;;;;;;5.30;1.43;;;;;;;17.88;62.45;96446.94;10335631;28;20053;-30
2023/05/01 06:36:49;;;;;;;3.55;1.23;;;;;;;17.89;57.46;96438.50;10329383;28;20076;-30
2023/05/01 06:41:50;;;;;;;2.50;1.73;;;;;;;17.87;56.61;96445.25;10360248;28;20037;-30
2023/05/01 06:46:55;;;;;;;1.48;1.38;;;;;;;17.87;56.33;96450.31;10357773;28;20065;-30
2023/05/01 06:51:56;;;;;;;3.63;1.30;;;;;;;17.86;57.02;96453.69;10343083;28;20037;-30
2023/05/01 06:56:56;;;;;;;1.37;0.80;;;;;;;17.86;56.61;96456.25;10337142;28;20034;-31
2023/05/01 07:01:56;;;;;;;1.67;1.00;;;;;;;17.89;56.16;96459.59;10345356;28;20526;-31
2023/05/01 07:06:57;;;;;;;3.20;1.20;;;;;;;17.91;56.51;96467.22;10321704;28;20038;-31
2023/05/01 07:11:58;;;;;;;3.17;1.07;;;;;;;17.88;56.82;96463.00;10347445;28;20770;-30
2023/05/01 07:16:58;;;;;;;4.10;1.10;;;;;;;17.89;59.67;96459.59;10330230;28;20321;-30
2023/05/01 07:21:58;;;;;;;2.80;1.30;;;;;;;17.88;57.05;96464.66;10354665;28;20120;-30
2023/05/01 07:26:59;;;;;;;3.47;1.80;;;;;;;17.90;61.39;96478.19;10331623;28;20583;-31
2023/05/01 07:32:00;;;;;;;4.15;1.88;;;;;;;17.89;63.52;96484.94;10343639;28;20168;-30
2023/05/01 07:37:00;;;;;;;3.05;1.77;;;;;;;17.89;63.20;96482.41;10344260;28;20084;-30
2023/05/01 07:42:01;;;;;;;2.45;1.45;;;;;;;17.90;61.16;96478.19;10317595;28;20084;-30
2023/05/01 07:47:05;;;;;;;3.20;1.20;;;;;;;17.89;58.51;96482.41;10342451;28;20113;-31
2023/05/01 07:52:09;;;;;;;1.67;1.48;;;;;;;17.89;57.66;96479.88;10331705;28;20049;-30
2023/05/01 07:57:10;;;;;;;1.58;1.10;;;;;;;17.89;57.23;96479.00;10333427;28;20085;-30
2023/05/01 08:02:12;;;;;;;1.50;1.17;;;;;;;17.89;57.29;96490.00;10338686;28;20046;-30
2023/05/01 08:07:13;;;;;;;1.33;1.20;;;;;;;17.90;57.51;96494.22;10322198;28;20569;-31
2023/05/01 08:12:14;;;;;;;2.53;1.23;;;;;;;17.86;56.89;96492.53;10345991;28;20043;-30
2023/05/01 08:17:14;;;;;;;1.40;0.90;;;;;;;17.91;57.01;96495.06;10341095;28;20041;-30
2023/05/01 08:22:14;;;;;;;2.40;1.60;;;;;;;17.89;57.91;96489.13;10332761;28;20043;-30
2023/05/01 08:27:15;;;;;;;3.77;1.50;;;;;;;17.90;56.99;96490.84;10324689;28;20407;-30
2023/05/01 08:32:17;;;;;;;2.70;1.85;;;;;;;17.90;62.38;96483.25;10340736;28;20042;-29
2023/05/01 08:37:18;;;;;;;3.08;1.30;;;;;;;17.91;63.85;96485.75;10339903;28;20038;-30
2023/05/01 08:42:18;;;;;;;4.53;1.55;;;;;;;17.91;63.85;96487.47;10343393;28;20034;-30
2023/05/01 08:47:20;;;;;;;3.35;1.40;;;;;;;17.91;59.60;96488.31;10332268;28;20034;-31
2023/05/01 08:52:22;;;;;;;2.30;1.17;;;;;;;17.90;57.62;96485.78;10358016;28;20045;-29
2023/05/01 08:57:24;;;;;;;0.95;0.95;;;;;;;17.92;57.95;96481.56;10325843;28;20046;-30
2023/05/01 09:02:26;;;;;;;1.30;0.73;;;;;;;17.90;57.58;96484.09;10357266;28;20031;-31
2023/05/01 09:07:28;;;;;;;1.23;1.02;;;;;;;17.90;57.38;96484.09;10335980;28;20038;-31
2023/05/01 09:12:29;;;;;;;1.23;0.90;;;;;;;17.89;57.12;96484.06;10345476;28;20030;-30
2023/05/01 09:17:31;;;;;;;1.85;1.10;;;;;;;17.92;57.33;96486.63;10354172;28;20500;-30
2023/05/01 09:22:32;;;;;;;2.42;1.25;;;;;;;17.91;57.25;96492.53;10352421;28;20034;-31
2023/05/01 09:27:34;;;;;;;1.30;0.98;;;;;;;17.91;58.63;96492.53;10342607;28;20523;-30
2023/05/01 09:32:35;;;;;;;1.20;1.05;;;;;;;17.92;57.21;96489.16;10345085;28;20041;-30
2023/05/01 09:37:35;;;;;;;1.63;1.25;;;;;;;17.96;61.30;96490.81;10335470;28;20042;-30
2023/05/01 09:42:49;;;;;;;3.80;1.50;;;;;;;17.99;63.21;96495.91;10318255;28;20046;-30
2023/05/01 09:47:49;;;;;;;2.03;1.17;;;;;;;17.97;62.11;96502.63;10306940;28;20023;-31
2023/05/01 09:52:51;;;;;;;1.97;1.20;;;;;;;17.95;57.50;96484.94;10311803;28;20582;-30
2023/05/01 09:57:52;;;;;;;3.22;1.30;;;;;;;17.95;57.46;96477.34;10326812;28;20047;-31
2023/05/01 10:02:52;;;;;;;1.27;1.00;;;;;;;17.94;57.00;96482.41;10322050;28;20046;-30
2023/05/01 10:07:58;;;;;;;2.30;1.38;;;;;;;17.89;59.36;96481.53;10342436;28;20042;-29
2023/05/01 10:13:13;;;;;;;6.97;1.20;;;;;;;17.93;57.04;96480.72;10327588;28;20048;-31
2023/05/01 10:18:15;;;;;;;4.20;1.13;;;;;;;17.95;56.67;96471.41;10314993;28;20653;-31
2023/05/01 10:23:16;;;;;;;4.28;1.10;;;;;;;17.98;57.19;96468.88;10331370;28;20054;-29
2023/05/01 10:28:17;;;;;;;1.35;1.00;;;;;;;17.99;57.11;96465.50;10334337;28;20508;-31
2023/05/01 10:33:18;;;;;;;1.42;0.90;;;;;;;17.99;56.74;96465.50;10321144;28;20076;-31
2023/05/01 10:38:24;;;;;;;2.75;0.90;;;;;;;18.00;56.53;96462.13;10329623;28;20038;-30
2023/05/01 10:43:30;;;;;;;10.70;3.40;;;;;;;18.09;61.59;96464.63;10339731;28;20593;-31
2023/05/01 10:48:36;;;;;;;13.02;2.75;;;;;;;18.07;62.61;96461.28;10324393;28;20524;-29
2023/05/01 10:53:38;;;;;;;6.35;1.65;;;;;;;17.98;59.90;96463.81;10308387;28;20038;-31
2023/05/01 10:58:38;;;;;;;6.78;1.63;;;;;;;17.96;57.19;96452.84;10320007;28;20042;-31
2023/05/01 11:03:39;;;;;;;8.50;1.40;;;;;;;18.00;56.77;96467.19;10333267;28;20420;-31
2023/05/01 11:08:39;;;;;;;5.53;1.88;;;;;;;17.99;56.76;96458.72;10332638;28;20030;-30
2023/05/01 11:13:55;;;;;;;5.05;1.25;;;;;;;17.98;56.42;96454.53;10325102;28;20046;-30
2023/05/01 11:18:56;;;;;;;3.40;1.25;;;;;;;17.98;56.36;96448.63;10344119;28;20129;-30
2023/05/01 11:23:56;;;;;;;4.65;0.80;;;;;;;17.98;56.14;96453.69;10334067;28;20049;-30
2023/05/01 11:28:58;;;;;;;4.00;1.27;;;;;;;17.96;56.07;96448.63;10342516;28;20046;-30
2023/05/01 11:33:59;;;;;;;1.70;1.40;;;;;;;17.97;55.80;96441.84;10343094;28;20026;-31
2023/05/01 11:39:00;;;;;;;3.80;1.40;;;;;;;17.95;55.88;96444.41;10329525;28;20038;-30
2023/05/01 11:44:00;;;;;;;3.20;0.93;;;;;;;17.95;55.97;96441.00;10349016;28;20053;-30
2023/05/01 11:49:01;;;;;;;4.17;1.23;;;;;;;18.07;60.80;96443.53;10335174;28;20285;-29
2023/05/01 11:54:07;;;;;;;2.88;1.40;;;;;;;18.13;60.62;96433.38;10331905;28;20407;-31
2023/05/01 11:59:15;;;;;;;1.85;1.05;;;;;;;18.03;56.82;96426.66;10332369;28;20041;-30
2023/05/01 12:04:25;;;;;;;1.58;1.10;;;;;;;17.98;56.02;96428.38;10341907;28;20042;-30
2023/05/01 12:09:26;;;;;;;2.15;0.77;;;;;;;17.94;55.85;96430.06;10338065;28;20468;-31
2023/05/01 12:14:27;;;;;;;1.60;0.90;;;;;;;17.92;55.81;96424.13;10331244;28;20523;-31
2023/05/01 12:19:27;;;;;;;1.80;0.90;;;;;;;17.90;55.72;96413.16;10343376;28;20053;-30
2023/05/01 12:24:27;;;;;;;2.10;1.07;;;;;;;17.88;55.74;96421.63;10346296;28;20057;-30
2023/05/01 12:29:40;;;;;;;1.80;0.90;;;;;;;17.86;55.84;96415.72;10331155;28;20018;-30
2023/05/01 12:34:41;;;;;;;1.30;1.10;;;;;;;17.85;56.03;96422.50;10338461;28;20034;-30
2023/05/01 12:39:43;;;;;;;4.53;0.98;;;;;;;17.85;55.67;96422.50;10333500;28;20034;-30
2023/05/01 12:44:44;;;;;;;2.08;1.08;;;;;;;17.81;55.73;96414.88;10321858;28;20065;-30
2023/05/01 12:49:44;;;;;;;1.63;1.15;;;;;;;17.86;58.56;96413.19;10337365;28;20064;-31
2023/05/01 12:54:45;;;;;;;1.45;1.23;;;;;;;18.02;58.40;96424.97;10332449;28;20045;-31
2023/05/01 12:59:46;;;;;;;4.28;1.63;;;;;;;18.10;58.84;96428.31;10343155;28;20030;-30
2023/05/01 13:04:50;;;;;;;1.35;1.10;;;;;;;17.99;57.28;96424.97;10336604;28;20034;-30
2023/05/01 13:09:52;;;;;;;1.77;1.10;;;;;;;17.90;56.15;96423.31;10343466;28;20042;-30
2023/05/01 13:14:53;;;;;;;1.58;0.88;;;;;;;17.86;55.84;96423.31;10343067;28;20026;-30
2023/05/01 13:20:02;;;;;;;2.47;1.10;;;;;;;17.85;55.97;96431.75;10349406;28;20076;-30
2023/05/01 13:25:19;;;;;;;0.85;0.52;;;;;;;17.82;55.89;96431.78;10338848;28;20061;-31
2023/05/01 13:30:32;;;;;;;1.27;0.82;;;;;;;17.80;55.95;96431.78;10345133;28;20037;-30
2023/05/01 13:35:33;;;;;;;1.00;0.70;;;;;;;17.80;55.81;96428.38;10337461;28;20214;-31
2023/05/01 13:40:33;;;;;;;1.37;0.87;;;;;;;17.80;55.85;96425.84;10337246;28;20587;-30
2023/05/01 13:45:34;;;;;;;1.10;0.80;;;;;;;17.79;55.80;96429.22;10324519;28;20304;-30
2023/05/01 13:50:35;;;;;;;1.37;0.63;;;;;;;17.75;55.62;96425.88;10343398;28;20026;-30
2023/05/01 13:55:38;;;;;;;4.32;1.52;;;;;;;17.82;58.67;96431.78;10335737;28;20077;-30
2023/05/01 14:00:39;;;;;;;1.75;1.15;;;;;;;18.00;57.64;96426.66;10350528;28;20029;-30
2023/05/01 14:05:41;;;;;;;5.25;1.67;;;;;;;18.05;58.44;96413.13;10355768;28;20056;-30
2023/05/01 14:10:41;;;;;;;3.63;1.20;;;;;;;17.99;58.20;96410.59;10332135;28;20491;-31
2023/05/01 14:15:42;;;;;;;1.40;1.10;;;;;;;17.91;59.26;96406.44;10334307;28;20041;-31
2023/05/01 14:20:46;;;;;;;9.60;2.08;;;;;;;17.91;59.77;96407.25;10345052;28;20489;-28
2023/05/01 14:25:48;;;;;;;4.47;1.40;;;;;;;17.89;57.45;96408.97;10344261;28;20037;-30
2023/05/01 14:30:53;;;;;;;5.03;1.38;;;;;;;17.87;57.13;96399.66;10353224;28;20025;-31
2023/05/01 14:35:54;;;;;;;6.63;2.08;;;;;;;17.91;58.39;96401.38;10356936;28;20401;-30
2023/05/01 14:40:54;;;;;;;4.72;1.80;;;;;;;17.97;56.71;96406.38;10324517;28;20037;-30
2023/05/01 14:45:54;;;;;;;5.27;1.93;;;;;;;18.03;59.88;96404.69;10338955;28;20121;-30
2023/05/01 14:50:56;;;;;;;6.30;2.17;;;;;;;18.21;59.90;96394.50;10342858;28;20041;-30
2023/05/01 14:55:57;;;;;;;7.80;2.38;;;;;;;18.24;58.13;96393.66;10326251;28;21020;-30
2023/05/01 15:00:57;;;;;;;7.63;2.27;;;;;;;18.20;55.92;96380.16;10343743;28;20099;-30
2023/05/01 15:05:58;;;;;;;8.93;1.70;;;;;;;18.19;55.83;96375.06;10369694;28;20049;-30
2023/05/01 15:10:58;;;;;;;4.70;1.90;;;;;;;18.18;55.61;96379.28;10338863;28;20778;-31
2023/05/01 15:15:59;;;;;;;3.72;1.95;;;;;;;18.17;56.08;96384.38;10335350;28;20576;-30
2023/05/01 15:20:59;;;;;;;4.28;2.15;;;;;;;18.15;55.81;96386.09;10351200;28;20041;-30
2023/05/01 15:26:00;;;;;;;5.60;1.90;;;;;;;18.13;56.23;96387.75;10343059;28;20034;-30
2023/05/01 15:31:01;;;;;;;4.93;1.48;;;;;;;18.11;56.08;96397.06;10325625;28;20035;-30
2023/05/01 15:36:01;;;;;;;4.45;1.77;;;;;;;18.11;56.25;96399.59;10336450;28;20034;-30
2023/05/01 15:41:01;;;;;;;2.40;1.50;;;;;;;18.05;56.64;96404.69;10337772;28;20037;-30
2023/05/01 15:46:02;;;;;;;8.33;2.60;;;;;;;18.14;59.67;96419.84;10336130;28;20548;-30
2023/05/01 15:51:03;;;;;;;12.18;2.85;;;;;;;18.25;60.46;96454.44;10335237;28;20109;-31
2023/05/01 15:56:03;;;;;;;4.15;1.73;;;;;;;18.24;58.44;96485.69;10321543;28;20042;-30
2023/05/01 16:01:04;;;;;;;4.88;1.95;;;;;;;18.15;56.26;96472.22;10346845;28;20401;-30
2023/05/01 16:06:05;;;;;;;3.67;2.22;;;;;;;18.06;56.01;96467.16;10336825;28;20039;-30
2023/05/01 16:11:05;;;;;;;7.20;2.35;;;;;;;18.07;56.03;96481.53;10329869;28;20038;-31
2023/05/01 16:16:10;;;;;;;11.95;2.90;;;;;;;18.04;56.12;96484.06;10334834;28;20050;-30
2023/05/01 16:21:14;;;;;;;16.85;3.33;;;;;;;18.05;56.06;96488.28;10339140;28;20037;-31
2023/05/01 16:26:21;;;;;;;9.60;2.90;;;;;;;18.03;56.33;96495.91;10362237;28;20033;-31
2023/05/01 16:31:22;;;;;;;13.85;4.00;;;;;;;18.01;56.30;96500.09;10337259;28;20030;-30
2023/05/01 16:36:22;;;;;;;22.40;4.68;;;;;;;18.02;56.36;96500.94;10358938;28;20116;-31
2023/05/01 16:41:25;;;;;;;16.33;4.00;;;;;;;18.01;56.20;96514.47;10332217;28;20455;-30
2023/05/01 16:46:25;;;;;;;29.88;9.35;;;;;;;18.08;61.42;96511.09;10327436;28;20319;-31
2023/05/01 16:51:27;;;;;;;43.43;12.57;;;;;;;18.21;63.57;96512.72;10331822;28;20468;-30
2023/05/01 16:56:27;;;;;;;31.30;8.20;;;;;;;18.09;63.31;96512.78;10338617;28;20579;-30
2023/05/01 17:01:27;;;;;;;20.73;6.97;;;;;;;18.09;60.68;96511.06;10346699;28;20033;-29
2023/05/01 17:06:28;;;;;;;13.27;4.70;;;;;;;18.12;58.15;96517.81;10348923;28;20075;-30
2023/05/01 17:11:28;;;;;;;13.20;5.10;;;;;;;18.08;57.32;96511.09;10340169;28;20488;-29
2023/05/01 17:16:29;;;;;;;14.50;4.63;;;;;;;18.06;57.28;96506.00;10338091;28;20068;-29
2023/05/01 17:21:31;;;;;;;11.55;4.68;;;;;;;18.06;57.77;96512.75;10324799;28;20340;-29
2023/05/01 17:26:31;;;;;;;10.40;4.15;;;;;;;18.02;56.66;96514.47;10325122;28;20038;-30
2023/05/01 17:31:32;;;;;;;15.70;4.60;;;;;;;17.81;60.22;96518.69;10340835;28;20037;-29
2023/05/01 17:36:32;;;;;;;31.58;4.75;;;;;;;17.73;59.09;96515.34;10351288;28;20128;-29
2023/05/01 17:41:33;;;;;;;10.87;3.63;;;;;;;17.63;60.76;96511.97;10364432;28;20041;-29
2023/05/01 17:46:34;;;;;;;5.13;3.20;;;;;;;17.66;60.70;96518.72;10326797;28;20053;-29
2023/05/01 17:51:36;;;;;;;8.30;3.47;;;;;;;17.65;60.78;96517.03;10350193;28;20273;-30
2023/05/01 17:56:36;;;;;;;9.80;3.78;;;;;;;17.76;60.64;96538.94;10346215;28;20041;-31
2023/05/01 18:01:36;;;;;;;6.47;3.50;;;;;;;17.74;60.88;96545.72;10337529;28;20092;-29
2023/05/01 18:06:37;;;;;;;8.68;3.20;;;;;;;17.81;59.66;96541.47;10361942;28;20041;-29
2023/05/01 18:11:37;;;;;;;6.57;4.10;;;;;;;17.74;60.80;96547.41;10340920;28;20034;-30
2023/05/01 18:16:37;;;;;;;7.03;3.07;;;;;;;17.85;58.28;96564.31;10331688;28;20508;-29
2023/05/01 18:21:38;;;;;;;5.20;2.80;;;;;;;17.91;57.34;96569.34;10354510;28;20289;-29
2023/05/01 18:26:38;;;;;;;6.57;3.40;;;;;;;17.96;60.52;96571.88;10355592;28;20297;-30
2023/05/01 18:31:39;;;;;;;6.30;2.63;;;;;;;17.96;56.96;96566.81;10335468;28;20038;-30
2023/05/01 18:36:39;;;;;;;5.20;2.77;;;;;;;17.95;56.84;96571.03;10326297;28;20046;-30
2023/05/01 18:41:40;;;;;;;4.07;2.97;;;;;;;17.95;56.77;96581.19;10335873;28;20296;-29
2023/05/01 18:46:40;;;;;;;8.20;3.75;;;;;;;17.95;57.88;96582.84;10311709;28;20034;-29
2023/05/01 18:51:41;;;;;;;11.32;4.03;;;;;;;18.12;62.78;96597.22;10325054;28;20320;-30
2023/05/01 19:03:03;;;;;;;6.95;2.92;;;;;;;18.04;56.76;96615.78;10321622;28;20116;-29
2023/05/01 19:08:05;;;;;;;3.43;2.40;;;;;;;18.01;56.46;96620.84;10322542;28;20026;-29
2023/05/01 19:13:06;;;;;;;2.60;2.38;;;;;;;17.96;56.33;96620.00;10314098;28;20503;-30
2023/05/01 19:18:06;;;;;;;2.58;2.05;;;;;;;17.95;55.82;96636.03;10319467;28;20030;-29
2023/05/01 19:23:07;;;;;;;3.10;1.73;;;;;;;17.94;55.72;96639.41;10311042;28;20037;-29
2023/05/01 19:28:07;;;;;;;4.10;1.70;;;;;;;17.93;55.66;96652.94;10317407;28;20030;-29
2023/05/01 19:33:08;;;;;;;2.53;1.70;;;;;;;17.92;55.43;96662.22;10320286;28;20428;-30
2023/05/01 19:38:08;;;;;;;2.10;1.87;;;;;;;17.93;55.44;96652.94;10322787;28;20440;-31
2023/05/01 19:43:08;;;;;;;2.47;1.73;;;;;;;17.92;55.47;96671.50;10327560;28;20285;-29
2023/05/01 19:48:09;;;;;;;11.67;2.00;;;;;;;17.91;55.70;96664.75;10330867;28;20828;-30
2023/05/01 19:53:09;;;;;;;3.22;2.55;;;;;;;17.98;57.43;96674.06;10333826;28;20302;-29
2023/05/01 19:58:10;;;;;;;5.17;3.40;;;;;;;18.12;63.75;96673.22;10313094;28;20042;-30
2023/05/01 20:03:10;;;;;;;4.47;2.10;;;;;;;18.15;59.27;96682.53;10312761;28;20034;-30
2023/05/01 20:08:11;;;;;;;1.98;1.75;;;;;;;18.03;56.86;96690.09;10313462;28;20447;-30
2023/05/01 20:13:12;;;;;;;2.17;1.98;;;;;;;17.96;57.96;96698.53;10330869;28;20031;-28
2023/05/01 20:18:12;;;;;;;3.80;1.85;;;;;;;17.94;56.25;96706.13;10317841;28;20026;-32
2023/05/01 20:37:40;;;;;;;2.53;1.50;;;;;;;18.22;55.42;96718.00;10456153;27;20390;-29
2023/05/01 20:42:41;;;;;;;4.57;1.50;;;;;;;18.19;55.15;96717.13;10442853;28;20041;-29
2023/05/01 20:47:42;;;;;;;1.60;1.50;;;;;;;18.15;55.82;96716.28;10443162;28;20280;-29
2023/05/01 20:52:43;;;;;;;2.67;2.00;;;;;;;18.13;55.26;96719.66;10439931;28;20087;-29
2023/05/01 20:57:44;;;;;;;1.90;1.45;;;;;;;18.08;55.44;96723.88;10442707;28;20060;-28
2023/05/01 21:02:44;;;;;;;3.50;2.17;;;;;;;18.19;64.42;96738.28;10442849;28;20116;-29
2023/05/01 21:07:45;;;;;;;3.35;2.42;;;;;;;18.24;65.50;96735.75;10442602;28;20065;-29
2023/05/01 21:12:45;;;;;;;5.80;2.35;;;;;;;18.16;58.33;96734.88;10441656;28;20041;-29
2023/05/01 21:17:45;;;;;;;1.80;1.50;;;;;;;18.11;57.12;96734.00;10438853;28;20079;-29
2023/05/01 21:22:47;;;;;;;1.70;1.60;;;;;;;18.10;56.85;96739.94;10441164;28;20116;-30
2023/05/01 21:27:48;;;;;;;1.83;1.52;;;;;;;18.08;57.26;96744.16;10437019;28;20050;-31
2023/05/01 21:32:48;;;;;;;2.30;1.47;;;;;;;18.06;56.45;96735.69;10441730;28;20397;-31
2023/05/01 21:37:49;;;;;;;2.67;1.60;;;;;;;18.04;56.30;96743.31;10416894;28;20029;-31
2023/05/01 21:42:51;;;;;;;1.65;1.48;;;;;;;18.04;56.16;96729.78;10409443;28;20466;-32
2023/05/01 21:47:54;;;;;;;1.40;1.30;;;;;;;18.04;56.27;96737.38;10412321;28;20057;-31
2023/05/01 21:52:55;;;;;;;1.83;1.40;;;;;;;18.03;56.12;96736.56;10412269;28;20504;-31
2023/05/01 21:57:56;;;;;;;1.73;1.50;;;;;;;18.03;56.03;96745.81;10406929;28;20048;-32
2023/05/01 22:02:57;;;;;;;2.33;1.75;;;;;;;18.02;55.82;96751.72;10414724;28;20362;-31
2023/05/01 22:07:59;;;;;;;5.45;2.20;;;;;;;18.10;63.23;96752.59;10414504;28;20037;-31
2023/05/01 22:12:59;;;;;;;3.33;2.80;;;;;;;18.18;65.93;96761.06;10413311;28;20591;-31
2023/05/01 22:17:59;;;;;;;2.63;2.30;;;;;;;18.17;63.51;96759.38;10414923;28;20033;-30
2023/05/01 22:23:00;;;;;;;4.07;1.90;;;;;;;18.07;58.16;96755.97;10409776;28;20029;-31
2023/05/01 22:28:03;;;;;;;3.05;1.77;;;;;;;18.03;57.52;96758.50;10413015;28;20033;-32
2023/05/01 22:33:03;;;;;;;2.22;1.60;;;;;;;17.99;57.27;96756.81;10413531;28;20448;-31
2023/05/01 22:38:03;;;;;;;1.80;1.70;;;;;;;17.99;56.65;96756.81;10414418;28;20545;-31
2023/05/01 22:43:04;;;;;;;1.80;1.70;;;;;;;17.98;56.35;96767.78;10405506;28;20044;-31
2023/05/01 22:48:05;;;;;;;2.13;1.73;;;;;;;17.96;56.36;96764.38;10412617;28;20053;-31
2023/05/01 22:53:06;;;;;;;1.83;1.67;;;;;;;17.95;56.60;96770.28;10411399;28;20501;-31
2023/05/01 22:58:08;;;;;;;1.35;1.25;;;;;;;17.95;56.27;96777.88;10412027;28;20049;-31
2023/05/01 23:03:09;;;;;;;1.42;1.25;;;;;;;17.96;56.41;96782.09;10412740;28;20036;-31
2023/05/01 23:08:09;;;;;;;1.95;1.05;;;;;;;17.93;56.21;96790.53;10412899;28;20396;-31
2023/05/01 23:13:17;;;;;;;2.83;2.27;;;;;;;17.97;60.53;96792.25;10411637;28;20036;-31
2023/05/01 23:18:24;;;;;;;4.03;2.63;;;;;;;18.08;65.72;96793.13;10405146;28;20317;-31
2023/05/01 23:23:29;;;;;;;3.08;2.78;;;;;;;18.13;63.70;96798.19;10410091;28;20033;-31
2023/05/01 23:28:29;;;;;;;2.83;1.80;;;;;;;18.04;60.08;96798.19;10405233;28;20037;-31
2023/05/01 23:33:35;;;;;;;2.50;1.52;;;;;;;18.00;58.10;96793.97;10409771;28;20447;-31
2023/05/01 23:38:36;;;;;;;2.20;1.40;;;;;;;17.93;57.37;96792.25;10410054;28;20037;-31
2023/05/01 23:43:37;;;;;;;1.27;1.15;;;;;;;17.92;56.99;96788.84;10408137;28;20037;-31